St. Louis Express — WDD3825 — position and weather

sailwx.info

Track history (hours):
 
Tides and Currents Weather Stations Pressure Air Temp Water Temp Dewpoint Dewpoint Depression Visibility Wind Speed Wind Dir Waves Ship Positions

St. Louis Express

Owner: Marine Transport Management, Inc C/O Crowley Ship Management, Jacksonville, FL. More information available from US FCC via Universal Licensing System.

Last reported at 2014-Oct-02 09:34 UTC. Time now 2014-Oct-02 10:30 UTC.
Position N 51°20' E 004°17'.

Type: Ship (hazmat cat D). MMSI: 367136680.

Date/timePositionNaut miles runAvg speedWind from/ knotsBaromVisibWave heightAir tempDewpointWater temp
2014-Oct-02 09:34N 51°20' E 004°17'0 0.0
2014-Oct-02 08:33N 51°20' E 004°17'0 0.0
2014-Oct-02 07:33N 51°20' E 004°17'0 0.0
2014-Oct-02 06:34N 51°20' E 004°17'0 0.0
2014-Oct-02 05:33N 51°20' E 004°17'0 0.0
2014-Oct-02 04:33N 51°20' E 004°17'0 0.0
2014-Oct-02 03:34N 51°20' E 004°17'0 0.0
2014-Oct-02 02:33N 51°20' E 004°17'0 0.0
2014-Oct-02 01:33N 51°20' E 004°17'0 0.0
2014-Oct-02 00:34N 51°20' E 004°17'0 0.0
2014-Oct-01 23:33N 51°20' E 004°17'0 0.0
2014-Oct-01 22:34N 51°20' E 004°17'0 0.0
2014-Oct-01 21:34N 51°20' E 004°17'0 0.0
2014-Oct-01 20:33N 51°20' E 004°17'0 0.0
2014-Oct-01 19:33N 51°20' E 004°17'0 0.0
2014-Oct-01 18:33N 51°20' E 004°17'0 0.0
2014-Oct-01 17:33N 51°20' E 004°17'0 0.0
2014-Oct-01 16:34N 51°20' E 004°17'0 0.0
2014-Oct-01 15:34N 51°20' E 004°17'0 0.3
2014-Oct-01 14:34N 51°20' E 004°16'8 7.9
2014-Oct-01 13:34N 51°22' E 004°04'10 9.7
2014-Oct-01 12:34N 51°21' E 003°49'1211.5
2014-Oct-01 11:33N 51°25' E 003°32'1716.8
2014-Oct-01 10:33N 51°24' E 003°05'1515.1
2014-Oct-01 09:33N 51°22' E 002°41'1111.2
2014-Oct-01 08:33N 51°20' E 002°23'2019.7
2014-Oct-01 07:33N 51°11' E 001°55'2020.0
2014-Oct-01 06:33N 50°56' E 001°33'2019.7
2014-Oct-01 05:32N 50°39' E 001°17'1919.2
2014-Oct-01 04:33N 50°28' E 000°53'2119.4
2014-Oct-01 03:29N 50°21' E 000°22'4220.0
2014-Oct-01 01:21N 50°13' W 000°43'16219.3
2014-Sep-30 17:00N 49°24' W 004°42'3029.9 190 / 81024.010.8 1.018.014.617.0
2014-Sep-30 16:00N 49°12' W 005°24'17714.8 190 / 101023.510.8 2.020.016.719.0
2014-Sep-30 04:00N 49°00' W 009°54'44819.5 190 / 101019.010.8 2.019.017.419.0
2014-Sep-29 05:00N 48°06' W 021°06'18218.2 180 / 101013.010.8 2.018.016.319.0
2014-Sep-28 19:00N 47°24' W 025°30'2929.1 180 / 161014.510.8 2.018.014.618.0
2014-Sep-28 18:00N 47°18' W 026°12'22819.0 180 / 151014.010.8 2.019.015.718.0
2014-Sep-28 06:00N 46°12' W 031°30'21019.1 180 / 101016.510.8 1.017.015.318.0
2014-Sep-27 19:00N 45°00' W 036°12'45018.7 180 / 161018.010.8 2.022.015.419.0
2014-Sep-26 19:00N 41°54' W 045°36'22618.8 270 / 61023.010.8 1.024.015.823.0
2014-Sep-26 07:00N 41°24' W 050°36'21019.1 1025.510.8 18.010.624.0
2014-Sep-25 20:00N 40°54' W 055°12'   080 / 81029.010.8 1.022.013.423.0
2014-Sep-23 14:33N 36°52' W 075°52'1212.4
2014-Sep-23 13:33N 36°58' W 076°05'1212.3
2014-Sep-23 12:33N 36°57' W 076°20'2 1.8
2014-Sep-23 11:31N 36°55' W 076°20'0 0.0
2014-Sep-23 04:04N 36°55' W 076°20'0 0.0
2014-Sep-23 03:04N 36°55' W 076°20'0 0.0
2014-Sep-23 00:28N 36°55' W 076°20'0 0.0
2014-Sep-22 22:13N 36°55' W 076°20'0 0.0
2014-Sep-22 18:33N 36°55' W 076°20'3 3.4
2014-Sep-22 17:33N 36°59' W 076°20'1413.6
2014-Sep-22 16:33N 36°57' W 076°03'1111.5
2014-Sep-22 15:33N 36°52' W 075°50'  
Track history (hours):
 
Tides and Currents Weather Stations Pressure Air Temp Water Temp Dewpoint Dewpoint Depression Visibility Wind Speed Wind Dir Waves Ship Positions

St. Louis Express

Owner: Marine Transport Management, Inc C/O Crowley Ship Management, Jacksonville, FL. More information available from US FCC via Universal Licensing System.

Last reported at 2014-Oct-02 09:34 UTC. Time now 2014-Oct-02 10:30 UTC.
Position N 51°20' E 004°17'.

Type: Ship (hazmat cat D). MMSI: 367136680.

Date/timePositionNaut miles runAvg speedWind from/ knotsBaromVisibWave heightAir tempDewpointWater temp
2014-Oct-02 09:34N 51°20' E 004°17'0 0.0
2014-Oct-02 08:33N 51°20' E 004°17'0 0.0
2014-Oct-02 07:33N 51°20' E 004°17'0 0.0
2014-Oct-02 06:34N 51°20' E 004°17'0 0.0
2014-Oct-02 05:33N 51°20' E 004°17'0 0.0
2014-Oct-02 04:33N 51°20' E 004°17'0 0.0
2014-Oct-02 03:34N 51°20' E 004°17'0 0.0
2014-Oct-02 02:33N 51°20' E 004°17'0 0.0
2014-Oct-02 01:33N 51°20' E 004°17'0 0.0
2014-Oct-02 00:34N 51°20' E 004°17'0 0.0
2014-Oct-01 23:33N 51°20' E 004°17'0 0.0
2014-Oct-01 22:34N 51°20' E 004°17'0 0.0
2014-Oct-01 21:34N 51°20' E 004°17'0 0.0
2014-Oct-01 20:33N 51°20' E 004°17'0 0.0
2014-Oct-01 19:33N 51°20' E 004°17'0 0.0
2014-Oct-01 18:33N 51°20' E 004°17'0 0.0
2014-Oct-01 17:33N 51°20' E 004°17'0 0.0
2014-Oct-01 16:34N 51°20' E 004°17'0 0.0
2014-Oct-01 15:34N 51°20' E 004°17'0 0.3
2014-Oct-01 14:34N 51°20' E 004°16'8 7.9
2014-Oct-01 13:34N 51°22' E 004°04'10 9.7
2014-Oct-01 12:34N 51°21' E 003°49'1211.5
2014-Oct-01 11:33N 51°25' E 003°32'1716.8
2014-Oct-01 10:33N 51°24' E 003°05'1515.1
2014-Oct-01 09:33N 51°22' E 002°41'1111.2
2014-Oct-01 08:33N 51°20' E 002°23'2019.7
2014-Oct-01 07:33N 51°11' E 001°55'2020.0
2014-Oct-01 06:33N 50°56' E 001°33'2019.7
2014-Oct-01 05:32N 50°39' E 001°17'1919.2
2014-Oct-01 04:33N 50°28' E 000°53'2119.4
2014-Oct-01 03:29N 50°21' E 000°22'4220.0
2014-Oct-01 01:21N 50°13' W 000°43'16219.3
2014-Sep-30 17:00N 49°24' W 004°42'3029.9 190 / 81024.010.8 1.018.014.617.0
2014-Sep-30 16:00N 49°12' W 005°24'17714.8 190 / 101023.510.8 2.020.016.719.0
2014-Sep-30 04:00N 49°00' W 009°54'44819.5 190 / 101019.010.8 2.019.017.419.0
2014-Sep-29 05:00N 48°06' W 021°06'18218.2 180 / 101013.010.8 2.018.016.319.0
2014-Sep-28 19:00N 47°24' W 025°30'2929.1 180 / 161014.510.8 2.018.014.618.0
2014-Sep-28 18:00N 47°18' W 026°12'22819.0 180 / 151014.010.8 2.019.015.718.0
2014-Sep-28 06:00N 46°12' W 031°30'21019.1 180 / 101016.510.8 1.017.015.318.0
2014-Sep-27 19:00N 45°00' W 036°12'45018.7 180 / 161018.010.8 2.022.015.419.0
2014-Sep-26 19:00N 41°54' W 045°36'22618.8 270 / 61023.010.8 1.024.015.823.0
2014-Sep-26 07:00N 41°24' W 050°36'21019.1 1025.510.8 18.010.624.0
2014-Sep-25 20:00N 40°54' W 055°12'   080 / 81029.010.8 1.022.013.423.0
2014-Sep-23 14:33N 36°52' W 075°52'1212.4
2014-Sep-23 13:33N 36°58' W 076°05'1212.3
2014-Sep-23 12:33N 36°57' W 076°20'2 1.8
2014-Sep-23 11:31N 36°55' W 076°20'0 0.0
2014-Sep-23 04:04N 36°55' W 076°20'0 0.0
2014-Sep-23 03:04N 36°55' W 076°20'0 0.0
2014-Sep-23 00:28N 36°55' W 076°20'0 0.0
2014-Sep-22 22:13N 36°55' W 076°20'0 0.0
2014-Sep-22 18:33N 36°55' W 076°20'3 3.4
2014-Sep-22 17:33N 36°59' W 076°20'1413.6
2014-Sep-22 16:33N 36°57' W 076°03'1111.5
2014-Sep-22 15:33N 36°52' W 075°50'  

Dump ship's entire track history